createdAt,value
2023-03-27T00:01:00.015Z,11.52
2023-03-27T00:02:02.507Z,10.77
2023-03-27T00:03:04.714Z,11.32
2023-03-27T00:04:09.125Z,10.52
2023-03-27T00:05:11.455Z,10.55
2023-03-27T00:06:16.789Z,11.05
2023-03-27T00:07:20.068Z,11.43
2023-03-27T00:08:22.227Z,10.77
2023-03-27T00:09:25.903Z,11.45
2023-03-27T00:10:31.129Z,11.90
2023-03-27T00:11:33.239Z,12.43
2023-03-27T00:12:35.762Z,12.13
2023-03-27T00:13:49.315Z,12.40
2023-03-27T00:14:53.859Z,12.25
2023-03-27T00:15:57.094Z,11.60
2023-03-27T00:17:00.345Z,12.55
2023-03-27T00:18:04.232Z,12.65
2023-03-27T00:19:06.443Z,12.35
2023-03-27T00:20:10.582Z,12.25
2023-03-27T00:21:13.033Z,12.55
2023-03-27T00:22:15.788Z,12.48
2023-03-27T00:23:20.022Z,13.30
2023-03-27T00:24:22.288Z,12.82
2023-03-27T00:25:26.594Z,12.38
2023-03-27T00:26:30.684Z,12.63
2023-03-27T00:27:32.835Z,12.85
2023-03-27T00:28:35.647Z,13.15
2023-03-27T00:29:38.013Z,11.93
2023-03-27T00:30:41.331Z,12.68
2023-03-27T00:31:43.512Z,12.55
2023-03-27T00:32:47.997Z,12.25
2023-03-27T00:33:50.119Z,11.43
2023-03-27T00:34:52.252Z,12.70
2023-03-27T00:35:54.706Z,11.70
2023-03-27T00:36:56.826Z,11.18
2023-03-27T00:37:59.361Z,10.70
2023-03-27T00:39:01.682Z,11.45
2023-03-27T00:40:08.048Z,11.02
2023-03-27T00:41:10.354Z,10.95
2023-03-27T00:42:14.221Z,12.50
2023-03-27T00:43:22.242Z,11.65
2023-03-27T00:44:27.480Z,11.60
2023-03-27T00:45:32.310Z,10.98
2023-03-27T00:46:41.589Z,11.48
2023-03-27T00:47:44.922Z,11.23
2023-03-27T00:48:51.500Z,12.32
2023-03-27T00:49:53.712Z,11.50
2023-03-27T00:50:57.410Z,10.90
2023-03-27T00:52:02.976Z,10.77
2023-03-27T00:53:09.651Z,11.18
2023-03-27T00:54:13.652Z,10.82
2023-03-27T00:55:20.126Z,10.55
2023-03-27T00:56:23.183Z,10.05
2023-03-27T00:57:27.620Z,10.52
2023-03-27T00:58:36.438Z,10.43
2023-03-27T00:59:42.170Z,10.23
2023-03-27T01:00:44.756Z,10.15
2023-03-27T01:02:03.925Z,10.48
2023-03-27T01:03:07.383Z,10.65
2023-03-27T01:04:09.832Z,10.23
2023-03-27T01:05:12.845Z,10.60
2023-03-27T01:06:17.260Z,9.50
2023-03-27T01:07:20.309Z,9.50
2023-03-27T01:08:23.272Z,8.00
2023-03-27T01:09:27.455Z,9.43
2023-03-27T01:10:40.822Z,10.00
2023-03-27T01:11:58.612Z,8.55
2023-03-27T01:13:17.280Z,10.18
2023-03-27T01:14:28.961Z,8.70
2023-03-27T01:15:40.213Z,9.35
2023-03-27T01:18:05.967Z,8.65
2023-03-27T01:19:57.094Z,7.95
2023-03-27T01:21:26.018Z,7.97
2023-03-27T01:23:07.247Z,6.10
2023-03-27T01:24:52.820Z,7.28
2023-03-27T01:26:35.565Z,7.45
2023-03-27T01:28:02.972Z,6.28
2023-03-27T01:29:16.354Z,7.32
2023-03-27T01:30:23.952Z,6.70
2023-03-27T01:33:08.630Z,8.13
2023-03-27T01:34:45.887Z,6.28
2023-03-27T01:36:08.355Z,6.30
2023-03-27T01:37:39.142Z,7.80
2023-03-27T01:39:29.194Z,7.03
2023-03-27T01:40:36.837Z,7.43
2023-03-27T01:41:47.214Z,7.95
2023-03-27T01:42:55.639Z,7.85
2023-03-27T01:44:03.622Z,7.10
2023-03-27T01:45:12.477Z,8.43
2023-03-27T01:46:20.718Z,7.97
2023-03-27T01:47:37.221Z,7.50
2023-03-27T01:48:43.888Z,8.10
2023-03-27T05:27:45.623Z,0.90
2023-03-27T05:28:47.773Z,0.98
2023-03-27T05:29:50.262Z,1.52
2023-03-27T05:30:53.027Z,1.23
2023-03-27T05:31:55.294Z,1.20
2023-03-27T05:32:59.455Z,0.90
2023-03-27T05:34:03.344Z,0.90
2023-03-27T05:35:07.541Z,1.23
2023-03-27T05:36:15.382Z,1.08
2023-03-27T05:37:17.759Z,1.27
2023-03-27T05:38:20.130Z,1.40
2023-03-27T05:39:22.549Z,1.20
2023-03-27T05:40:26.646Z,1.38
2023-03-27T05:41:28.759Z,1.40
2023-03-27T05:42:30.877Z,1.27
2023-03-27T05:43:33.088Z,0.95
2023-03-27T05:44:35.262Z,1.10
2023-03-27T05:45:37.447Z,1.13
2023-03-27T05:46:40.506Z,1.40
2023-03-27T05:47:47.306Z,1.20
2023-03-27T05:48:49.574Z,1.30
2023-03-27T05:49:51.649Z,1.50
2023-03-27T05:50:53.848Z,1.45
2023-03-27T05:51:58.314Z,1.35
2023-03-27T05:53:01.854Z,1.40
2023-03-27T05:54:04.071Z,0.80
2023-03-27T05:55:08.180Z,1.25
2023-03-27T05:56:10.762Z,1.00
2023-03-27T05:57:12.928Z,0.80
2023-03-27T05:58:16.529Z,0.85
2023-03-27T05:59:20.159Z,6.00
2023-03-27T06:00:26.138Z,1.20
2023-03-27T06:01:28.276Z,1.52
2023-03-27T06:02:30.492Z,1.00
2023-03-27T06:03:35.048Z,1.30
2023-03-27T06:04:37.387Z,4.97
2023-03-27T06:05:41.587Z,1.25
2023-03-27T06:06:43.881Z,0.98
2023-03-27T06:07:47.836Z,1.10
2023-03-27T06:08:49.949Z,1.10
2023-03-27T06:09:52.024Z,0.75
2023-03-27T06:10:54.475Z,1.00
2023-03-27T06:11:56.712Z,1.10
2023-03-27T06:13:00.402Z,1.27
2023-03-27T06:14:02.655Z,1.15
2023-03-27T06:15:07.775Z,1.15
2023-03-27T06:16:10.638Z,1.10
2023-03-27T06:17:12.962Z,1.20
2023-03-27T06:18:15.049Z,1.05
2023-03-27T06:19:17.193Z,1.35
2023-03-27T06:20:21.382Z,1.50
2023-03-27T06:21:23.712Z,1.63
2023-03-27T06:22:26.538Z,1.50
2023-03-27T06:23:30.022Z,1.60
2023-03-27T06:24:32.098Z,1.30
2023-03-27T06:25:36.529Z,1.30
2023-03-27T06:26:39.352Z,1.73
2023-03-27T06:27:41.934Z,1.63
2023-03-27T06:28:46.987Z,2.00
2023-03-27T06:29:50.702Z,1.20
2023-03-27T06:30:53.156Z,1.42
2023-03-27T06:31:57.938Z,1.05
2023-03-27T06:33:00.961Z,1.55
2023-03-27T06:34:03.245Z,1.60
2023-03-27T06:35:07.644Z,1.88
2023-03-27T06:36:10.524Z,1.88
2023-03-27T06:37:12.860Z,2.10
2023-03-27T06:38:17.892Z,1.30
2023-03-27T06:39:21.984Z,1.20
2023-03-27T06:40:26.354Z,1.80
2023-03-27T06:41:28.453Z,1.55
2023-03-27T06:42:30.801Z,1.20
2023-03-27T06:43:33.131Z,1.27
2023-03-27T06:44:35.545Z,1.23
2023-03-27T06:45:43.388Z,1.67
2023-03-27T06:46:46.036Z,1.55
2023-03-27T06:47:54.364Z,1.52
2023-03-27T06:48:58.280Z,1.13
2023-03-27T06:50:00.669Z,1.30
2023-03-27T06:51:02.844Z,1.45
2023-03-27T06:52:05.831Z,1.20
2023-03-27T06:53:19.652Z,1.30
2023-03-27T06:54:28.560Z,1.08
2023-03-27T06:55:32.867Z,1.20
2023-03-27T06:56:35.174Z,1.20
2023-03-27T06:57:43.113Z,1.40
2023-03-27T06:58:45.695Z,1.00
2023-03-27T06:59:48.880Z,1.27
2023-03-27T07:00:51.351Z,1.23
2023-03-27T07:01:53.536Z,1.00
2023-03-27T07:02:58.903Z,1.00
2023-03-27T07:04:01.157Z,1.40
2023-03-27T07:05:05.306Z,1.58
2023-03-27T07:06:08.133Z,1.33
2023-03-27T07:07:11.187Z,1.17
2023-03-27T07:08:23.317Z,1.23
2023-03-27T07:09:27.430Z,1.48
2023-03-27T07:10:29.636Z,1.27
2023-03-27T07:11:32.118Z,1.27
2023-03-27T07:12:34.614Z,1.60
2023-03-27T07:13:37.489Z,1.80
2023-03-27T07:14:40.397Z,1.40
2023-03-27T07:15:42.714Z,1.33
2023-03-27T07:16:45.046Z,1.75
2023-03-27T07:17:53.314Z,1.40
2023-03-27T07:18:55.819Z,1.38
2023-03-27T07:19:57.998Z,1.23
2023-03-27T07:21:00.794Z,1.17
2023-03-27T07:22:03.331Z,1.00
2023-03-27T07:23:05.546Z,0.95
2023-03-27T07:24:09.426Z,1.10
2023-03-27T07:25:13.507Z,1.02
2023-03-27T07:26:15.754Z,1.25
2023-03-27T07:27:17.943Z,1.02
2023-03-27T07:28:21.053Z,1.45
2023-03-27T07:29:23.288Z,1.00
2023-03-27T07:30:25.651Z,1.15
2023-03-27T07:31:42.443Z,1.30
2023-03-27T07:32:51.638Z,1.60
2023-03-27T07:33:54.357Z,1.33
2023-03-27T07:34:57.336Z,0.75
2023-03-27T07:35:59.809Z,1.10
2023-03-27T07:37:02.250Z,0.80
2023-03-27T07:38:05.255Z,1.30
2023-03-27T07:39:09.105Z,1.23
2023-03-27T07:40:13.481Z,1.27
2023-03-27T07:41:15.793Z,0.93
2023-03-27T07:42:17.882Z,1.30
2023-03-27T07:43:20.001Z,1.10
2023-03-27T07:44:24.414Z,1.00
2023-03-27T07:45:26.747Z,0.98
2023-03-27T07:46:30.720Z,1.00
2023-03-27T07:47:32.828Z,0.90
2023-03-27T07:48:35.974Z,0.93
2023-03-27T07:49:39.440Z,1.10
2023-03-27T07:50:43.105Z,1.00
2023-03-27T07:51:45.328Z,0.77
2023-03-27T07:52:49.190Z,0.80
2023-03-27T07:53:56.605Z,1.00
2023-03-27T07:54:59.131Z,1.02
2023-03-27T07:56:02.813Z,1.10
2023-03-27T07:57:05.346Z,1.23
2023-03-27T07:58:07.783Z,1.05
2023-03-27T07:59:16.356Z,1.27
2023-03-27T08:00:20.792Z,1.70
2023-03-27T08:01:24.029Z,1.58
2023-03-27T08:02:27.371Z,1.33
2023-03-27T08:03:30.370Z,1.50
2023-03-27T08:04:35.073Z,1.73
2023-03-27T08:05:38.454Z,1.63
2023-03-27T08:06:40.633Z,1.65
2023-03-27T08:07:45.437Z,1.35
2023-03-27T08:08:47.520Z,1.38
2023-03-27T08:09:53.303Z,1.90
2023-03-27T08:10:57.064Z,1.17
2023-03-27T08:12:00.706Z,1.20
2023-03-27T08:13:02.968Z,1.38
2023-03-27T08:14:05.684Z,1.60
2023-03-27T08:15:09.546Z,1.30
2023-03-27T08:16:13.493Z,1.40
2023-03-27T08:17:17.231Z,1.40
2023-03-27T08:18:20.434Z,1.50
2023-03-27T08:19:23.499Z,1.75
2023-03-27T08:20:25.834Z,1.80
2023-03-27T08:21:29.885Z,1.52
2023-03-27T08:22:33.692Z,1.30
2023-03-27T08:23:38.055Z,1.10
2023-03-27T08:24:40.461Z,1.23
2023-03-27T08:25:50.450Z,3.63
2023-03-27T08:26:52.715Z,1.63
2023-03-27T08:27:56.839Z,1.10
2023-03-27T08:29:00.005Z,1.15
2023-03-27T08:30:04.007Z,1.52
2023-03-27T08:31:11.410Z,0.80
2023-03-27T08:32:13.894Z,1.30
2023-03-27T08:33:17.100Z,0.80
2023-03-27T08:34:19.241Z,0.80
2023-03-27T08:35:21.636Z,1.98
2023-03-27T08:36:23.983Z,3.00
2023-03-27T08:37:27.316Z,2.20
2023-03-27T08:38:33.301Z,0.93
2023-03-27T08:39:35.654Z,1.02
2023-03-27T08:40:38.466Z,0.90
2023-03-27T08:41:48.617Z,1.00
2023-03-27T08:42:54.345Z,1.35
2023-03-27T08:44:01.409Z,1.10
2023-03-27T08:45:10.074Z,1.17
2023-03-27T08:46:20.098Z,1.40
2023-03-27T08:47:32.176Z,1.10
2023-03-27T08:48:39.915Z,1.30
2023-03-27T08:49:46.260Z,1.00
2023-03-27T08:50:52.829Z,1.23
2023-03-27T08:51:58.330Z,1.60
2023-03-27T08:53:02.824Z,1.08
2023-03-27T08:54:08.540Z,1.05
2023-03-27T08:55:18.872Z,1.00
2023-03-27T08:56:21.825Z,1.10
2023-03-27T08:57:28.369Z,1.40
2023-03-27T08:58:30.845Z,0.80
2023-03-27T08:59:34.322Z,1.27
2023-03-27T09:00:40.505Z,0.93
2023-03-27T09:01:49.215Z,1.10
2023-03-27T09:02:54.414Z,1.27
2023-03-27T09:04:02.628Z,0.90
2023-03-27T09:05:15.528Z,1.20
2023-03-27T09:06:25.734Z,1.02
2023-03-27T09:07:34.461Z,1.10
2023-03-27T09:08:45.869Z,1.00
2023-03-27T09:09:55.843Z,1.38
2023-03-27T09:11:03.203Z,0.95
2023-03-27T09:12:17.309Z,1.17
2023-03-27T09:13:24.377Z,1.02
2023-03-27T09:14:32.899Z,0.82
2023-03-27T09:15:40.073Z,0.90
2023-03-27T09:16:49.730Z,0.60
2023-03-27T09:17:58.177Z,0.73
2023-03-27T09:19:06.283Z,1.15
2023-03-27T09:20:17.900Z,1.20
2023-03-27T09:21:25.849Z,0.90
2023-03-27T09:22:31.327Z,0.98
2023-03-27T09:23:39.617Z,1.13
2023-03-27T09:24:46.154Z,1.00
2023-03-27T09:25:52.977Z,1.00
2023-03-27T09:27:06.790Z,0.82
2023-03-27T09:28:18.886Z,1.50
2023-03-27T09:29:24.673Z,0.90
2023-03-27T09:30:28.700Z,0.95
2023-03-27T09:31:34.536Z,1.35
2023-03-27T09:32:46.730Z,1.05
2023-03-27T09:33:51.594Z,1.30
2023-03-27T09:34:53.827Z,1.10
2023-03-27T09:35:58.302Z,1.00
2023-03-27T09:37:01.104Z,1.00
2023-03-27T09:38:10.188Z,1.60
2023-03-27T09:39:17.761Z,8.95
2023-03-27T09:40:25.439Z,1.10
2023-03-27T09:41:31.386Z,0.93
2023-03-27T09:42:39.093Z,1.20
2023-03-27T09:43:46.683Z,0.93
2023-03-27T09:44:52.782Z,0.98
2023-03-27T09:45:56.733Z,1.10
2023-03-27T09:47:05.168Z,1.52
2023-03-27T09:48:14.839Z,0.95
2023-03-27T09:49:18.555Z,1.20
2023-03-27T09:50:28.515Z,1.55
2023-03-27T09:51:45.010Z,1.02
2023-03-27T09:52:47.339Z,0.90
2023-03-27T09:53:58.284Z,0.85
2023-03-27T09:55:00.764Z,1.13
2023-03-27T09:56:05.666Z,0.80
2023-03-27T09:57:11.622Z,1.00
2023-03-27T09:58:20.583Z,0.82
2023-03-27T09:59:26.126Z,0.88
2023-03-27T10:00:32.024Z,1.05
2023-03-27T10:01:36.380Z,0.77
2023-03-27T10:02:40.463Z,1.17
2023-03-27T10:03:48.979Z,0.98
2023-03-27T10:04:59.333Z,0.63
2023-03-27T10:06:07.815Z,0.70
2023-03-27T10:07:23.637Z,0.70
2023-03-27T10:08:37.883Z,0.73
2023-03-27T10:09:41.067Z,0.88
2023-03-27T10:10:45.822Z,0.73
2023-03-27T10:11:50.421Z,0.90
2023-03-27T10:12:58.399Z,0.70
2023-03-27T10:14:02.289Z,0.60
2023-03-27T10:15:07.869Z,0.82
2023-03-27T10:16:10.273Z,0.77
2023-03-27T10:17:23.211Z,1.20
2023-03-27T10:18:30.522Z,1.02
2023-03-27T10:19:36.365Z,1.00
2023-03-27T10:20:49.159Z,1.30
2023-03-27T10:21:51.606Z,0.90
2023-03-27T10:22:56.199Z,1.10
2023-03-27T10:24:04.162Z,1.30
2023-03-27T10:25:19.249Z,1.20
2023-03-27T10:26:26.507Z,1.65
2023-03-27T10:27:33.425Z,1.40
2023-03-27T10:28:40.784Z,1.80
2023-03-27T10:29:43.003Z,1.20
2023-03-27T10:30:45.263Z,1.90
2023-03-27T10:31:51.240Z,1.23
2023-03-27T10:32:53.958Z,0.88
2023-03-27T10:34:00.524Z,1.10
2023-03-27T10:35:03.314Z,1.00
2023-03-27T10:36:08.599Z,1.20
2023-03-27T10:37:28.121Z,1.13
2023-03-27T10:38:33.013Z,1.00
2023-03-27T10:39:35.910Z,1.00
2023-03-27T10:40:44.786Z,1.27
2023-03-27T10:41:48.600Z,1.27
2023-03-27T10:42:51.088Z,1.30
2023-03-27T10:43:53.619Z,1.10
2023-03-27T10:44:57.624Z,1.50
2023-03-27T10:46:04.584Z,1.15
2023-03-27T10:47:16.765Z,1.30
2023-03-27T10:48:30.775Z,1.40
2023-03-27T10:49:41.755Z,1.20
2023-03-27T10:50:53.344Z,1.10
2023-03-27T10:52:06.274Z,1.08
2023-03-27T10:53:17.166Z,1.30
2023-03-27T10:54:33.460Z,1.10
2023-03-27T10:55:44.994Z,1.40
2023-03-27T10:56:57.168Z,1.35
2023-03-27T10:58:05.480Z,1.10
2023-03-27T10:59:16.486Z,1.50
2023-03-27T11:00:26.720Z,0.85
2023-03-27T11:01:34.699Z,1.02
2023-03-27T11:02:45.243Z,0.82
2023-03-27T11:03:51.640Z,0.85
2023-03-27T11:04:59.233Z,0.90
2023-03-27T11:06:05.869Z,0.77
2023-03-27T11:07:16.432Z,1.10
2023-03-27T11:08:23.615Z,1.00
2023-03-27T11:09:31.483Z,1.20
2023-03-27T11:10:39.795Z,1.15
2023-03-27T11:11:47.754Z,1.20
2023-03-27T11:12:54.654Z,1.25
2023-03-27T11:14:02.423Z,1.27
2023-03-27T11:15:11.540Z,1.10
2023-03-27T11:16:18.727Z,1.40
2023-03-27T11:17:28.964Z,1.63
2023-03-27T11:18:37.194Z,1.20
2023-03-27T11:19:45.826Z,0.60
2023-03-27T11:20:53.660Z,0.85
2023-03-27T11:21:59.942Z,0.80
2023-03-27T11:23:06.603Z,0.70
2023-03-27T11:24:17.557Z,1.08
2023-03-27T11:25:26.006Z,0.90
2023-03-27T11:26:33.975Z,0.75
2023-03-27T11:27:40.011Z,0.80
2023-03-27T11:28:46.483Z,1.02
2023-03-27T11:29:57.175Z,1.00
2023-03-27T11:31:11.777Z,0.70
2023-03-27T11:32:21.392Z,0.70
2023-03-27T11:33:40.594Z,0.68
2023-03-27T11:34:48.987Z,0.95
2023-03-27T11:35:58.161Z,0.70
2023-03-27T11:37:04.940Z,0.70
2023-03-27T11:38:14.932Z,0.90
2023-03-27T11:39:22.978Z,1.20
2023-03-27T11:40:30.028Z,1.25
2023-03-27T11:41:32.192Z,1.17
2023-03-27T11:42:39.655Z,0.93
2023-03-27T11:43:41.876Z,1.00
2023-03-27T11:44:44.737Z,1.58
2023-03-27T11:45:57.015Z,1.40
2023-03-27T11:47:32.277Z,1.20
2023-03-27T11:49:05.562Z,0.73
2023-03-27T11:50:23.155Z,1.00
2023-03-27T11:51:41.822Z,1.00
2023-03-27T11:52:55.967Z,1.17
2023-03-27T11:54:13.469Z,1.00
2023-03-27T11:55:24.942Z,0.73
2023-03-27T11:56:39.910Z,0.60
2023-03-27T11:57:58.736Z,0.68
2023-03-27T11:59:21.521Z,0.70
2023-03-27T12:00:31.353Z,0.70
2023-03-27T12:01:37.956Z,1.45
2023-03-27T12:03:07.679Z,0.82
2023-03-27T12:04:27.296Z,1.10
2023-03-27T12:05:40.471Z,0.90
2023-03-27T12:06:54.115Z,0.80
2023-03-27T12:08:03.521Z,1.00
2023-03-27T12:09:29.760Z,1.15
2023-03-27T12:10:33.846Z,1.33
2023-03-27T12:11:43.286Z,1.30
2023-03-27T12:13:28.813Z,1.60
2023-03-27T12:14:51.803Z,0.80
2023-03-27T12:16:11.421Z,2.15
2023-03-27T12:17:28.237Z,1.92
2023-03-27T12:18:48.055Z,0.95
2023-03-27T12:20:53.278Z,0.80
2023-03-27T12:22:21.104Z,0.88
2023-03-27T12:23:50.825Z,0.90
2023-03-27T12:25:14.290Z,0.80
2023-03-27T12:26:38.803Z,0.70
2023-03-27T12:27:55.632Z,0.52
2023-03-27T12:29:22.678Z,0.70
2023-03-27T12:30:34.874Z,0.60
2023-03-27T12:31:52.888Z,0.50
2023-03-27T12:33:25.984Z,0.57
2023-03-27T12:34:42.965Z,0.50
2023-03-27T12:35:50.855Z,0.43
2023-03-27T12:36:53.798Z,0.55
2023-03-27T12:38:02.167Z,0.70
2023-03-27T12:39:14.753Z,0.77
2023-03-27T12:40:30.388Z,0.80
2023-03-27T12:41:35.826Z,0.80
2023-03-27T12:42:44.502Z,0.75
2023-03-27T12:43:53.672Z,0.75
2023-03-27T12:45:06.487Z,0.90
2023-03-27T12:46:13.157Z,0.90
2023-03-27T12:47:21.682Z,0.98
2023-03-27T12:48:23.858Z,1.00
2023-03-27T12:49:47.652Z,0.70
2023-03-27T12:50:57.938Z,0.55
2023-03-27T12:52:04.849Z,0.70
2023-03-27T12:53:19.891Z,0.50
2023-03-27T12:54:26.439Z,0.80
2023-03-27T12:55:32.450Z,0.63
2023-03-27T12:56:38.674Z,0.68
2023-03-27T12:57:45.194Z,0.88
2023-03-27T12:58:51.582Z,0.70
2023-03-27T12:59:57.797Z,1.45
2023-03-27T13:01:01.315Z,0.70
2023-03-27T13:02:42.746Z,0.93
2023-03-27T13:04:07.811Z,0.45
2023-03-27T13:05:41.139Z,0.80
2023-03-27T13:06:50.944Z,0.70
2023-03-27T13:08:07.339Z,0.85
2023-03-27T13:09:47.060Z,0.80
2023-03-27T13:10:57.887Z,0.63
2023-03-27T13:12:29.611Z,0.63
2023-03-27T13:13:57.315Z,0.93
2023-03-27T13:15:28.080Z,0.80
2023-03-27T13:16:45.701Z,0.70
2023-03-27T13:18:06.055Z,0.52
2023-03-27T13:19:25.672Z,0.45
2023-03-27T13:20:42.092Z,0.70
2023-03-27T13:21:54.959Z,0.85
2023-03-27T13:23:09.642Z,0.47
2023-03-27T13:24:36.680Z,0.50
2023-03-27T13:26:04.447Z,0.40
2023-03-27T13:27:32.352Z,0.30
2023-03-27T13:28:37.817Z,0.43
2023-03-27T13:29:40.233Z,0.80
2023-03-27T13:30:46.961Z,0.52
2023-03-27T13:32:04.316Z,0.50
2023-03-27T13:33:14.613Z,0.65
2023-03-27T13:34:28.838Z,0.70
2023-03-27T13:35:41.319Z,0.45
2023-03-27T13:36:48.731Z,0.60
2023-03-27T13:37:58.420Z,0.40
2023-03-27T13:39:15.824Z,0.70
2023-03-27T13:40:26.580Z,0.65
2023-03-27T13:41:55.463Z,1.10
2023-03-27T13:43:05.179Z,1.38
2023-03-27T13:44:12.417Z,1.83
2023-03-27T13:45:19.147Z,2.25
2023-03-27T13:46:29.256Z,2.20
2023-03-27T13:47:57.176Z,1.70
2023-03-27T13:49:17.594Z,1.92
2023-03-27T13:50:41.084Z,1.30
2023-03-27T13:52:16.090Z,1.85
2023-03-27T13:53:37.785Z,1.40
2023-03-27T13:55:10.678Z,1.15
2023-03-27T13:56:32.617Z,1.00
2023-03-27T13:57:54.937Z,1.20
2023-03-27T13:59:28.683Z,12.02
2023-03-27T14:01:03.483Z,0.70
2023-03-27T14:02:40.121Z,0.77
2023-03-27T14:04:10.300Z,0.70
2023-03-27T14:05:24.086Z,0.85
2023-03-27T14:07:01.780Z,0.63
2023-03-27T14:08:26.736Z,0.70
2023-03-27T14:09:47.416Z,0.60
2023-03-27T14:11:31.858Z,0.55
2023-03-27T14:12:50.672Z,0.70
2023-03-27T14:14:22.425Z,0.70
2023-03-27T14:16:56.741Z,0.70
2023-03-27T14:18:27.430Z,0.70
2023-03-27T14:20:07.961Z,0.75
2023-03-27T14:21:17.927Z,0.90
2023-03-27T14:22:32.176Z,0.73
2023-03-27T14:23:39.474Z,0.80
2023-03-27T14:24:44.868Z,0.90
2023-03-27T14:25:57.488Z,0.82
2023-03-27T14:27:01.413Z,0.90
2023-03-27T14:28:08.943Z,0.70
2023-03-27T14:29:11.404Z,1.90
2023-03-27T14:30:19.251Z,1.05
2023-03-27T14:31:23.081Z,0.77
2023-03-27T14:32:25.812Z,0.70
2023-03-27T14:33:28.697Z,0.80
2023-03-27T14:34:43.868Z,0.70
2023-03-27T14:35:57.471Z,1.50
2023-03-27T14:36:59.806Z,0.80
2023-03-27T14:38:05.372Z,0.75
2023-03-27T14:39:14.867Z,1.30
2023-03-27T14:40:23.034Z,0.88
2023-03-27T14:41:25.638Z,0.60
2023-03-27T14:42:32.616Z,0.90
2023-03-27T14:43:36.600Z,0.80
2023-03-27T14:44:38.725Z,1.13
2023-03-27T14:45:41.489Z,0.90
2023-03-27T14:46:48.169Z,1.00
2023-03-27T14:47:54.439Z,0.82
2023-03-27T14:48:59.802Z,0.90
2023-03-27T14:50:02.617Z,1.05
2023-03-27T14:51:09.510Z,0.70
2023-03-27T14:52:22.045Z,0.80
2023-03-27T14:53:28.342Z,0.90
2023-03-27T14:54:34.935Z,0.98
2023-03-27T14:55:42.567Z,0.70
2023-03-27T14:56:47.714Z,0.68
2023-03-27T14:57:51.338Z,1.00
2023-03-27T14:58:57.879Z,0.70
2023-03-27T15:00:06.888Z,0.52
2023-03-27T15:01:11.323Z,0.80
2023-03-27T15:02:19.534Z,1.00
2023-03-27T15:03:26.382Z,0.70
2023-03-27T15:04:33.163Z,0.60
2023-03-27T15:05:50.901Z,0.80
2023-03-27T15:06:56.133Z,0.80
2023-03-27T15:07:59.872Z,0.85
2023-03-27T15:09:06.577Z,0.77
2023-03-27T15:10:22.561Z,0.80
2023-03-27T15:11:26.598Z,0.80
2023-03-27T15:12:28.793Z,0.77
2023-03-27T15:13:36.325Z,0.85
2023-03-27T15:14:42.591Z,0.65
2023-03-27T15:15:49.100Z,0.60
2023-03-27T15:16:58.175Z,0.73
2023-03-27T15:18:01.139Z,0.73
2023-03-27T15:19:09.900Z,0.77
2023-03-27T15:20:14.621Z,0.70
2023-03-27T15:21:22.043Z,0.80
2023-03-27T15:22:29.801Z,0.52
2023-03-27T15:23:40.081Z,0.70
2023-03-27T15:24:46.292Z,0.98
2023-03-27T15:25:55.953Z,0.77
2023-03-27T15:27:01.848Z,0.52
2023-03-27T15:28:10.384Z,0.68
2023-03-27T15:29:18.696Z,0.93
2023-03-27T15:30:28.236Z,0.80
2023-03-27T15:31:33.052Z,0.80
2023-03-27T15:32:42.538Z,1.05
2023-03-27T15:33:53.788Z,0.85
2023-03-27T15:34:58.025Z,0.77
2023-03-27T15:36:03.654Z,0.85
2023-03-27T15:37:13.072Z,0.60
2023-03-27T15:38:17.336Z,0.50
2023-03-27T15:39:21.886Z,0.70
2023-03-27T15:40:40.337Z,0.70
2023-03-27T15:41:49.517Z,0.75
2023-03-27T15:42:54.446Z,0.70
2023-03-27T15:44:01.972Z,0.70
2023-03-27T15:45:04.959Z,1.13
2023-03-27T15:46:17.180Z,0.80
2023-03-27T15:47:27.010Z,0.93
2023-03-27T15:48:35.211Z,1.05
2023-03-27T15:49:41.819Z,0.90
2023-03-27T15:50:55.574Z,0.80
2023-03-27T15:51:59.354Z,0.70
2023-03-27T15:53:02.446Z,1.00
2023-03-27T15:54:24.504Z,0.88
2023-03-27T15:55:37.081Z,1.02
2023-03-27T15:56:41.667Z,0.95
2023-03-27T15:57:43.866Z,0.80
2023-03-27T15:58:50.750Z,0.82
2023-03-27T15:59:53.758Z,1.00
2023-03-27T16:01:00.637Z,1.10
2023-03-27T16:02:10.954Z,0.90
2023-03-27T16:03:19.346Z,0.83
2023-03-27T16:04:27.923Z,0.80
2023-03-27T16:05:30.146Z,0.80
2023-03-27T16:06:37.160Z,0.80
2023-03-27T16:07:47.200Z,0.90
2023-03-27T16:08:49.848Z,0.80
2023-03-27T16:09:55.406Z,0.80
2023-03-27T16:10:59.059Z,1.20
2023-03-27T16:12:01.305Z,0.60
2023-03-27T16:13:04.121Z,0.80
2023-03-27T16:14:19.673Z,0.90
2023-03-27T16:15:30.287Z,1.08
2023-03-27T16:16:36.814Z,1.08
2023-03-27T16:17:45.938Z,1.00
2023-03-27T16:18:49.350Z,1.13
2023-03-27T16:19:54.323Z,0.82
2023-03-27T16:21:06.825Z,1.10
2023-03-27T16:22:09.034Z,1.20
2023-03-27T16:23:11.213Z,1.58
2023-03-27T16:24:13.294Z,1.38
2023-03-27T16:25:16.539Z,2.63
2023-03-27T16:26:22.627Z,1.52
2023-03-27T16:27:27.502Z,1.58
2023-03-27T16:30:36.277Z,1.50
2023-03-27T16:31:38.434Z,1.40
2023-03-27T16:32:42.163Z,1.73
2023-03-27T16:33:45.787Z,1.00
2023-03-27T16:34:51.250Z,1.00
2023-03-27T16:35:54.899Z,1.60
2023-03-27T16:36:57.570Z,1.73
2023-03-27T16:38:00.190Z,1.00
2023-03-27T16:39:04.284Z,1.08
2023-03-27T16:40:07.612Z,1.50
2023-03-27T16:41:14.390Z,1.27
2023-03-27T16:42:18.463Z,1.60
2023-03-27T16:43:20.561Z,1.20
2023-03-27T16:44:22.875Z,1.05
2023-03-27T16:45:25.586Z,1.20
2023-03-27T16:46:29.512Z,1.08
2023-03-27T16:47:32.069Z,1.48
2023-03-27T16:48:35.822Z,1.30
2023-03-27T16:49:38.072Z,1.20
2023-03-27T16:50:40.313Z,1.02
2023-03-27T16:51:43.561Z,1.25
2023-03-27T16:52:45.949Z,1.10
2023-03-27T16:53:48.386Z,2.00
2023-03-27T16:54:50.982Z,1.13
2023-03-27T16:56:57.990Z,2.10
2023-03-27T16:58:00.673Z,2.45
2023-03-27T16:59:05.783Z,4.10
2023-03-27T17:00:12.871Z,3.58
2023-03-27T17:01:15.075Z,1.92
2023-03-27T17:02:17.235Z,0.93
2023-03-27T17:03:19.357Z,1.77
2023-03-27T17:04:23.378Z,2.10
2023-03-27T17:05:25.868Z,2.22
2023-03-27T17:06:28.036Z,2.38
2023-03-27T17:07:30.221Z,1.88
2023-03-27T17:08:32.438Z,2.67
2023-03-27T17:09:34.733Z,1.70
2023-03-27T17:10:36.898Z,1.50
2023-03-27T17:11:39.582Z,2.15
2023-03-27T17:12:41.776Z,1.00
2023-03-27T17:13:43.896Z,0.90
2023-03-27T17:14:46.116Z,2.42
2023-03-27T17:15:50.264Z,2.20
2023-03-27T17:16:52.651Z,2.33
2023-03-27T17:17:54.886Z,1.30
2023-03-27T17:18:57.524Z,2.90
2023-03-27T17:20:01.498Z,4.57
2023-03-27T17:21:04.166Z,3.35
2023-03-27T17:22:06.485Z,2.20
2023-03-27T17:23:08.885Z,3.72
2023-03-27T17:24:11.662Z,4.05
2023-03-27T17:25:14.127Z,2.22
2023-03-27T17:26:22.314Z,2.08
2023-03-27T17:27:26.612Z,1.48
2023-03-27T17:28:29.300Z,2.88
2023-03-27T17:29:31.761Z,3.15
2023-03-27T17:30:39.750Z,1.92
2023-03-27T17:31:44.930Z,3.33
2023-03-27T17:32:47.141Z,2.15
2023-03-27T17:33:49.936Z,1.75
2023-03-27T17:34:52.305Z,2.20
2023-03-27T17:35:57.234Z,1.55
2023-03-27T17:36:59.664Z,1.40
2023-03-27T17:38:01.775Z,1.75
2023-03-27T17:39:07.426Z,1.67
2023-03-27T17:40:10.520Z,1.55
2023-03-27T17:41:14.516Z,1.52
2023-03-27T17:42:16.891Z,1.20
2023-03-27T17:43:19.224Z,1.42
2023-03-27T17:44:23.750Z,1.30
2023-03-27T17:45:28.219Z,1.33
2023-03-27T17:46:30.528Z,1.50
2023-03-27T17:47:32.732Z,1.55
2023-03-27T17:48:35.530Z,1.40
2023-03-27T17:49:37.792Z,1.17
2023-03-27T17:50:39.963Z,1.80
2023-03-27T17:51:43.466Z,1.30
2023-03-27T17:52:45.759Z,1.50
2023-03-27T17:53:47.830Z,1.90
2023-03-27T17:54:49.942Z,2.80
2023-03-27T17:55:52.192Z,1.92
2023-03-27T17:56:54.295Z,2.28
2023-03-27T17:58:08.323Z,2.47
2023-03-27T17:59:11.825Z,2.17
2023-03-27T18:00:15.397Z,3.03
2023-03-27T18:01:19.590Z,1.90
2023-03-27T18:02:22.141Z,1.63
2023-03-27T18:03:24.589Z,1.48
2023-03-27T18:04:26.842Z,1.90
2023-03-27T18:05:29.409Z,1.98
2023-03-27T18:06:31.533Z,1.30
2023-03-27T18:07:35.080Z,1.30
2023-03-27T18:08:37.236Z,1.60
2023-03-27T18:09:39.304Z,2.20
2023-03-27T18:10:44.202Z,1.38
2023-03-27T18:11:47.066Z,1.77
2023-03-27T18:12:49.138Z,1.80
2023-03-27T18:13:53.213Z,1.90
2023-03-27T18:14:55.609Z,1.48
2023-03-27T18:15:58.328Z,1.55
2023-03-27T18:17:00.783Z,1.52
2023-03-27T18:18:03.560Z,1.23
2023-03-27T18:19:05.873Z,1.25
2023-03-27T18:20:12.492Z,1.50
2023-03-27T18:21:16.092Z,1.50
2023-03-27T18:22:18.589Z,1.02
2023-03-27T18:23:22.300Z,1.13
2023-03-27T18:24:24.472Z,0.88
2023-03-27T18:25:26.719Z,1.10
2023-03-27T18:26:28.945Z,1.15
2023-03-27T18:27:31.039Z,1.20
2023-03-27T18:28:33.657Z,1.55
2023-03-27T18:29:36.302Z,1.08
2023-03-27T18:30:38.526Z,1.27
2023-03-27T18:31:40.767Z,1.55
2023-03-27T18:32:44.667Z,1.10
2023-03-27T18:33:46.850Z,3.33
2023-03-27T18:34:48.986Z,1.30
2023-03-27T18:35:53.961Z,1.52
2023-03-27T18:36:56.396Z,1.40
2023-03-27T18:37:58.778Z,1.38
2023-03-27T18:39:04.308Z,1.70
2023-03-27T18:40:11.124Z,1.67
2023-03-27T18:41:19.197Z,1.55
2023-03-27T18:42:21.294Z,1.63
2023-03-27T18:43:23.471Z,1.60
